En poursuivant votre navigation sur ce site, vous acceptez l'utilisation de cookies pour vous proposer des contenus et services adaptés. Mentions légales.
  

11/09/2021 Mise à jour des tableaux d'analyses décadaires : rubrique climatologie
04/09/2021 Mise en ligne de la synthèse climatologique d'Août 2021 : cliquez ICI
01/09/2021 Mise à jour des tableaux d'analyses décadaires, mensuelles et annuelles : rubrique climatologie
  

NOAA COMPLET DU MOIS

Si l'entête du tableau ne s'affiche pas correctement, => actualisez la page (F5 avec Internet Explorer, Chrome...).
Utilisez l'ascenseur sur la droite des lignes du tableau pour faire défiler verticalement les jours du mois.

TABLEAU DES DONNEES COMPLETES NOAA de AOUT 2021

DATE TEMPERATURE
sous abri
TEMPARATURE 
au sol
VENT  et  Indice de Refroidissement Eolien  PRECIPITATIONS (en mm/m2)
et Intensité
PRESSION ATMOSPHERIQUE (en hPa) HUMIDITE de l'AIR RADIATIONS SOLAIRES (en W/m2)
Mini Moy. Maxi Mini Moy. Maxi Moyen Rafale I.R.E.
Minii
Précip. jour Cumul mois Intensité Maxi Mini Moy. Maxi Mini Moy. Maxi Pic maxi du jour Total jour
01/08/21 14° 16.6° 22.8° 13.9° 17.9° 27.8° 2.7km/h dir ENE 32.2km/h dir O 14° 15.6 15.6 123.8mm/h 1010.4 1012.3 1015.1 60% 87.8% 94% 1292 48 830
02/08/21 11.3° 17.8° 24.7° 11.7° 19° 28.3° 2.4km/h dir NNE 12.9km/h dir NNE 11.3° 0.2 15.8 1014.6 1015.6 1016.7 52% 79.1% 94% 1213 74 234
03/08/21 13.4° 16.4° 20.7° 13.3° 17.3° 24.4° 2.6km/h dir ENE 16.1km/h dir ENE 13.4° 3.2 19 9.2mm/h 1014.3 1015.1 1015.8 74% 87.5% 94% 714 25 914
04/08/21 14.6° 16.3° 19.2° 15.6° 17.6° 23.3° 0.8km/h dir S 12.9km/h dir ENE 14.6° 4.6 23.6 3.8mm/h 1011.4 1012.8 1015.4 83% 92.2% 94% 677 21 838
05/08/21 15.1° 18.9° 24.6° 15° 20.2° 28.9° 2.9km/h dir SE 16.1km/h dir ESE 15.2° 8 31.6 77.4mm/h 1009.1 1011.3 1012.9 55% 81.7% 94% 1194 50 479
06/08/21 16.3° 20.9° 26.4° 15.6° 22° 31.1° 3.7km/h dir SSE 17.7km/h dir S 16.3° 0 31.6 1006.8 1008.9 1010.6 50% 73.1% 92% 1139 69 257
07/08/21 15.3° 17.1° 19.3° 15° 17.7° 25° 2.7km/h dir SE 20.9km/h dir SE 15.3° 26 57.6 28.4mm/h 1005.3 1007.3 1011.6 81% 91.6% 94% 807 13 977
08/08/21 11.9° 17.6° 24.1° 12.2° 19° 28.3° 1.6km/h dir N 16.1km/h dir S 11.9° 0.2 57.8 1011.6 1015.1 1017.6 51% 78.6% 95% 1116 62 680
09/08/21 12.8° 17.4° 23.6° 13.3° 18.6° 27.2° 0.6km/h dir SE 9.7km/h dir N 12.8° 0 57.8 1017.5 1018.4 1019.6 62% 83.6% 94% 849 45 490
10/08/21 13.3° 21.3° 29.9° 13.9° 22.5° 32.8° 0.5km/h dir S 3.2km/h dir SSE 13.4° 0 57.8 1015.9 1017.4 1018.4 47% 76.9% 94% 882 79 539
11/08/21 15.9° 23.3° 30.4° 15.6° 23.7° 33.3° 0.5km/h dir O 6.4km/h dir N 15.9° 0 57.8 1016.2 1017.2 1018.3 53% 76.6% 94% 840 78 813
12/08/21 17.3° 23.5° 33.5° 16.7° 24.1° 35.6° 1.3km/h dir S 29km/h dir ESE 17.3° 2.4 60.2 3.2mm/h 1014.9 1017.4 1021.2 54% 80.8% 94% 860 70 141
13/08/21 17.1° 23.9° 31.2° 17.2° 24.9° 33.9° 0.5km/h dir E 25.7km/h dir N 17.1° 0 60.2 1019.6 1020.7 1022 58% 79.9% 94% 826 74 600
14/08/21 19.1° 25.9° 33.2° 18.9° 26.6° 36.1° 0.3km/h dir O 6.4km/h dir SO 19.1° 0 60.2 1015.1 1017.8 1020.1 59% 81% 94% 821 76 228
15/08/21 20.7° 26.8° 33.7° 20.6° 27.2° 36.1° 1.9km/h dir O 16.1km/h dir N 20.7° 0 60.2 1011 1013.3 1015.3 51% 75.7% 93% 947 75 665
16/08/21 16.6° 20.1° 24.2° 16.7° 20.3° 26.7° 2.3km/h dir OSO 19.3km/h dir OSO 16.6° 1.2 61.4 4.6mm/h 1014 1017.4 1020.2 60% 74.7% 93% 1071 45 109
17/08/21 14.1° 18° 22.8° 14.4° 19.4° 27.8° 2.6km/h dir O 20.9km/h dir O 14.1° 0.4 61.8 1019.2 1020.2 1021.4 57% 79.5% 94% 1044 62 546
18/08/21 13.3° 17.4° 20.7° 12.2° 17.9° 24.4° 2.1km/h dir OSO 16.1km/h dir OSO 13.3° 0 61.8 1017.7 1019.4 1020.9 71% 81.1% 91% 1065 38 510
19/08/21 14.8° 18.3° 23.7° 13.3° 18.9° 28.3° 1.6km/h dir SO 11.3km/h dir O 14.8° 0 61.8 1014.7 1016.4 1018.1 64% 82.9% 94% 1134 50 819
20/08/21 11.2° 18.3° 26.8° 11.1° 19.1° 29.4° 1.1km/h dir O 14.5km/h dir NNE 11.2° 0 61.8 1015 1016 1017.2 58% 82.8% 94% 967 69 454
21/08/21 14.3° 22.3° 30.9° 13.3° 22.1° 32.8° 1.6km/h dir SE 17.7km/h dir ESE 14.3° 0.2 62 1014.6 1016.1 1017.2 40% 75.8% 94% 809 72 055
22/08/21 16.2° 21.2° 24.7° 14.4° 21.3° 30° 1.6km/h dir OSO 19.3km/h dir OSO 16.3° 0 62 1016.4 1019.3 1021.4 63% 78.9% 91% 1097 51 956
23/08/21 13.7° 18.6° 23.6° 12.2° 19° 26.7° 4km/h dir O 24.1km/h dir NNE 13.7° 0.2 62.2 1018.4 1020 1021.5 61% 79.8% 93% 1067 73 254
24/08/21 14.8° 18.7° 24.8° 13.9° 19.3° 27.8° 4km/h dir NNE 29km/h dir NNE 14.8° 0 62.2 1015.1 1016.8 1018.5 61% 80.3% 93% 981 38 001
25/08/21 11.4° 17.4° 24.4° 10.6° 17.9° 27.8° 3.7km/h dir O 20.9km/h dir NNE 11.4° 0 62.2 1014.1 1015.7 1017 61% 81.7% 94% 962 68 022
26/08/21 10.9° 17.9° 24.7° 10.6° 18.6° 27.8° 4.7km/h dir O 27.4km/h dir N 10.9° 0 62.2 1013 1014.5 1015.5 53% 78.9% 94% 918 76 435
27/08/21 11.3° 16.8° 22° 10° 17° 25° 9.7km/h dir O 33.8km/h dir N 10.8° 0 62.2 1014.1 1015 1016.4 54% 74.4% 92% 972 78 327
28/08/21 10.2° 16° 22° 9.4° 16.1° 25° 10.5km/h dir O 37km/h dir N 9.6° 0 62.2 1016 1016.7 1018.1 54% 76.4% 93% 947 76 825
29/08/21 10.6° 15.7° 22.2° 8.9° 16.1° 26.7° 8.5km/h dir O 32.2km/h dir N 10.6° 0 62.2 1016 1017.1 1018.1 60% 81.8% 94% 1049 52 024
30/08/21 11.4° 16.6° 22.7° 10.6° 17° 27.2° 9.2km/h dir O 29km/h dir O 11.1° 0.2 62.4 1015.6 1016.2 1017.2 61% 81.1% 94% 1215 58 270
31/08/21 12.8° 17.7° 23.6° 11.7° 18.3° 26.7° 9.5km/h dir O 33.8km/h dir O 12.3° 0 62.4 1017 1018.6 1019.6 58% 77.9% 94% 956 73 168

RETOUR ACCUEIL


Date de création : 01/09/2021 : 21:46
Catégorie : ANNEE 2020 - MOIS PASSES - AOUT 2021
Page lue 44 fois


Réactions à cet article


Personne n'a encore laissé de commentaire.
Soyez donc le premier !